Time;durP1;ratioP1;P1;durP2;ratioP2;P2;SDS_P1;SDS_P2;PMS_P1;PMS_P2;Temp;Humidity;BMP_temperature;BMP_pressure;BME280_temperature;BME280_humidity;BME280_pressure;Samples;Min_cycle;Max_cycle;Signal;HPM_P1;HPM_P2
2022/08/06 00:02:20;;;;;;;0.57;0.40;;;;;;;10.22;100.00;102035.25;5027851;28;20537;-47
2022/08/06 00:04:46;;;;;;;0.40;0.28;;;;;;;10.15;100.00;102035.06;5029681;28;20403;-49
2022/08/06 00:07:12;;;;;;;0.70;0.50;;;;;;;10.08;100.00;102028.69;5022565;28;20408;-50
2022/08/06 00:09:37;;;;;;;0.63;0.35;;;;;;;10.02;100.00;102039.88;5026473;28;20075;-51
2022/08/06 00:12:04;;;;;;;0.52;0.52;;;;;;;9.94;100.00;102037.13;5023188;28;20036;-50
2022/08/06 00:14:30;;;;;;;3.65;0.30;;;;;;;9.88;100.00;102038.56;5025904;28;20021;-47
2022/08/06 00:16:57;;;;;;;1.27;0.30;;;;;;;9.85;100.00;102038.84;5028838;28;20041;-49
2022/08/06 00:19:23;;;;;;;2.25;0.47;;;;;;;9.82;100.00;102037.34;5017410;28;20050;-49
2022/08/06 00:21:49;;;;;;;6.45;0.77;;;;;;;9.83;100.00;102039.03;5027075;28;20386;-50
2022/08/06 00:24:14;;;;;;;2.65;0.75;;;;;;;9.81;100.00;102046.28;5029587;28;20029;-50
2022/08/06 00:26:40;;;;;;;0.80;0.80;;;;;;;9.78;100.00;102049.22;5020379;28;20030;-53
2022/08/06 00:29:06;;;;;;;1.40;1.15;;;;;;;9.71;100.00;102052.63;5019888;28;20026;-48
2022/08/06 00:31:32;;;;;;;0.93;0.57;;;;;;;9.61;100.00;102053.47;5026977;28;20399;-47
2022/08/06 00:34:00;;;;;;;0.98;0.98;;;;;;;9.52;100.00;102066.75;5029889;28;20064;-52
2022/08/06 00:36:27;;;;;;;1.58;0.88;;;;;;;9.49;100.00;102056.47;5025008;28;20033;-53
2022/08/06 00:38:53;;;;;;;1.20;0.55;;;;;;;9.46;100.00;102064.69;5024078;28;20033;-50
2022/08/06 00:41:19;;;;;;;1.73;0.75;;;;;;;9.41;100.00;102061.66;5028159;28;20063;-48
2022/08/06 00:43:45;;;;;;;3.65;0.88;;;;;;;9.31;100.00;102064.31;5025335;28;20354;-48
2022/08/06 00:46:10;;;;;;;1.45;0.90;;;;;;;9.23;100.00;102058.91;5028302;28;20029;-46
2022/08/06 00:48:36;;;;;;;1.60;1.08;;;;;;;9.15;100.00;102056.97;5019275;28;20386;-52
2022/08/06 00:51:01;;;;;;;1.20;1.05;;;;;;;9.07;100.00;102062.16;5026984;28;20053;-47
2022/08/06 00:53:27;;;;;;;3.15;0.90;;;;;;;8.99;100.00;102064.69;5021909;28;20056;-52
2022/08/06 00:55:52;;;;;;;2.38;0.85;;;;;;;8.95;100.00;102072.88;5020580;28;20363;-53
2022/08/06 00:58:17;;;;;;;2.38;1.65;;;;;;;8.90;100.00;102072.47;5019453;28;20026;-50
2022/08/06 01:00:43;;;;;;;2.08;1.65;;;;;;;8.87;100.00;102071.94;5025649;28;20100;-50
2022/08/06 01:03:10;;;;;;;2.75;0.80;;;;;;;8.81;100.00;102077.78;5029143;28;20556;-50
2022/08/06 01:05:36;;;;;;;6.53;1.00;;;;;;;8.72;100.00;102080.31;5020012;28;20055;-53
2022/08/06 01:08:01;;;;;;;2.17;1.52;;;;;;;8.65;100.00;102081.00;5029414;28;20029;-49
2022/08/06 01:10:26;;;;;;;3.10;2.03;;;;;;;8.56;100.00;102077.38;5023748;28;20128;-49
2022/08/06 01:12:52;;;;;;;4.32;1.13;;;;;;;8.49;100.00;102086.81;5023482;28;20152;-49
2022/08/06 01:15:17;;;;;;;2.42;1.65;;;;;;;8.42;100.00;102083.91;5028445;28;20033;-48
2022/08/06 01:17:55;;;;;;;0.85;0.80;;;;;;;8.37;100.00;102082.63;5017577;28;20030;-50
2022/08/06 01:20:41;;;;;;;1.90;1.08;;;;;;;8.28;100.00;102085.09;5026277;28;20025;-47
2022/08/06 01:23:16;;;;;;;2.08;1.38;;;;;;;8.20;100.00;102094.69;5029051;28;20112;-46
2022/08/06 01:26:08;;;;;;;1.85;1.17;;;;;;;8.16;100.00;102082.69;5028934;28;20095;-48
2022/08/06 01:28:43;;;;;;;2.47;0.82;;;;;;;8.15;100.00;102097.72;5013623;28;20482;-47
2022/08/06 01:31:14;;;;;;;1.55;0.88;;;;;;;8.14;100.00;102090.78;5023337;28;20460;-50
2022/08/06 01:33:44;;;;;;;;;;;;;;;8.14;100.00;102093.41;5028174;28;20079;-48
2022/08/06 01:36:14;;;;;;;1.67;1.08;;;;;;;8.13;100.00;102101.47;5026263;28;20015;-46
2022/08/06 01:38:45;;;;;;;0.95;0.80;;;;;;;8.13;100.00;102098.81;5028778;28;20102;-50
2022/08/06 01:41:38;;;;;;;2.75;1.33;;;;;;;8.12;100.00;102097.16;5023302;28;20029;-50
2022/08/06 01:44:05;;;;;;;2.33;1.42;;;;;;;8.07;100.00;102098.41;5026790;28;20112;-50
2022/08/06 01:46:31;;;;;;;2.83;1.20;;;;;;;8.03;100.00;102098.81;5018512;28;20104;-47
2022/08/06 01:48:59;;;;;;;3.10;1.48;;;;;;;7.94;100.00;102103.09;5020907;28;20036;-56
2022/08/06 01:51:26;;;;;;;2.08;1.75;;;;;;;7.84;100.00;102104.84;5025880;28;20383;-50
2022/08/06 01:53:53;;;;;;;2.75;1.45;;;;;;;7.72;100.00;102111.19;5023612;28;20036;-48
2022/08/06 01:56:20;;;;;;;1.95;1.83;;;;;;;7.63;100.00;102116.31;5021948;28;20053;-46
2022/08/06 01:58:49;;;;;;;4.00;1.77;;;;;;;7.54;100.00;102113.63;5017350;28;20029;-52
2022/08/06 02:01:18;;;;;;;2.85;1.80;;;;;;;7.45;100.00;102117.88;5024019;28;20109;-49
2022/08/06 02:03:47;;;;;;;4.45;1.33;;;;;;;7.36;100.00;102122.16;5023875;28;20033;-49
2022/08/06 02:06:16;;;;;;;2.22;1.38;;;;;;;7.30;100.00;102121.81;5026074;28;20434;-48
2022/08/06 02:08:44;;;;;;;1.40;1.20;;;;;;;7.19;100.00;102122.72;5025398;28;20152;-51
2022/08/06 02:11:10;;;;;;;3.38;1.60;;;;;;;7.08;100.00;102131.53;5016732;28;20045;-52
2022/08/06 02:13:38;;;;;;;3.10;1.98;;;;;;;7.01;100.00;102133.00;5025515;28;20029;-48
2022/08/06 02:16:06;;;;;;;1.45;1.27;;;;;;;6.94;100.00;102122.16;5018828;28;20475;-48
2022/08/06 02:18:37;;;;;;;2.88;1.80;;;;;;;6.92;100.00;102126.72;5025232;28;20033;-47
2022/08/06 02:21:07;;;;;;;2.08;1.45;;;;;;;6.90;100.00;102131.25;5026736;28;20364;-48
2022/08/06 02:23:35;;;;;;;2.23;1.10;;;;;;;6.86;100.00;102131.63;5019153;28;20121;-51
2022/08/06 02:26:02;;;;;;;1.98;1.17;;;;;;;6.83;100.00;102124.81;5017960;28;20330;-51
2022/08/06 02:28:29;;;;;;;2.03;1.77;;;;;;;6.84;100.00;102129.13;5023060;28;20036;-51
2022/08/06 02:30:57;;;;;;;5.45;1.63;;;;;;;6.83;100.00;102122.19;5021976;28;20037;-51
2022/08/06 02:33:23;;;;;;;2.58;1.98;;;;;;;6.78;100.00;102124.34;5026877;28;20088;-47
2022/08/06 02:35:53;;;;;;;2.65;1.63;;;;;;;6.67;100.00;102133.16;5021016;28;20893;-53
2022/08/06 02:38:36;;;;;;;3.63;1.85;;;;;;;6.54;100.00;102127.19;5026773;28;20497;-53
2022/08/06 02:41:14;;;;;;;3.55;2.40;;;;;;;6.44;100.00;102139.44;5017835;28;20029;-51
2022/08/06 02:43:47;;;;;;;3.00;2.03;;;;;;;6.38;100.00;102135.50;5024197;28;20022;-49
2022/08/06 02:46:28;;;;;;;3.83;2.42;;;;;;;6.31;100.00;102135.16;5016852;28;20033;-52
2022/08/06 02:48:59;;;;;;;6.00;2.08;;;;;;;6.27;100.00;102141.66;5016830;28;20037;-52
2022/08/06 02:51:58;;;;;;;3.00;1.75;;;;;;;6.23;100.00;102152.53;5020259;28;20217;-50
2022/08/06 02:54:30;;;;;;;2.35;2.03;;;;;;;6.21;100.00;102142.09;5026888;28;20037;-47
2022/08/06 02:57:02;;;;;;;2.50;2.10;;;;;;;6.15;100.00;102139.97;5017437;28;20030;-49
2022/08/06 02:59:33;;;;;;;5.07;2.25;;;;;;;6.08;100.00;102144.88;5022688;28;20025;-47
2022/08/06 03:02:02;;;;;;;2.40;1.63;;;;;;;6.02;100.00;102150.63;5026219;28;20092;-48
2022/08/06 03:04:29;;;;;;;3.33;2.22;;;;;;;5.99;100.00;102148.25;5024891;28;20049;-48
2022/08/06 03:06:57;;;;;;;3.35;2.10;;;;;;;5.99;100.00;102148.25;5019342;28;20025;-47
2022/08/06 03:09:23;;;;;;;2.90;1.85;;;;;;;6.00;100.00;102146.44;5023569;28;20041;-51
2022/08/06 03:11:50;;;;;;;3.28;2.53;;;;;;;5.99;100.00;102142.13;5013975;28;20063;-49
2022/08/06 03:14:16;;;;;;;3.58;2.60;;;;;;;5.93;100.00;102139.94;5026842;28;20072;-53
2022/08/06 03:16:43;;;;;;;2.47;2.17;;;;;;;5.84;100.00;102150.25;5027570;28;20067;-53
2022/08/06 03:19:09;;;;;;;3.92;1.77;;;;;;;5.74;100.00;102144.03;5027131;28;20100;-47
2022/08/06 03:21:35;;;;;;;2.45;2.03;;;;;;;5.69;100.00;102144.38;5025094;28;20479;-52
2022/08/06 03:24:02;;;;;;;2.28;2.08;;;;;;;5.64;100.00;102151.78;5026125;28;20041;-51
2022/08/06 03:26:29;;;;;;;3.40;2.38;;;;;;;5.59;100.00;102145.19;5027663;28;20025;-49
2022/08/06 03:28:56;;;;;;;2.58;1.90;;;;;;;5.54;100.00;102144.72;5018925;28;20033;-50
2022/08/06 03:31:23;;;;;;;3.00;2.08;;;;;;;5.49;100.00;102142.44;5025088;28;20026;-51
2022/08/06 03:33:51;;;;;;;4.22;2.63;;;;;;;5.49;100.00;102144.22;5022199;28;20026;-51
2022/08/06 03:36:18;;;;;;;2.95;2.53;;;;;;;5.52;100.00;102157.13;5030416;28;20100;-54
2022/08/06 03:38:55;;;;;;;2.95;2.38;;;;;;;5.53;100.00;102153.56;5034020;28;20026;-53
2022/08/06 03:41:23;;;;;;;7.50;2.08;;;;;;;5.53;100.00;102157.03;5028105;28;20044;-49
2022/08/06 03:43:48;;;;;;;3.88;1.85;;;;;;;5.49;100.00;102160.00;5025879;28;20026;-49
2022/08/06 03:46:17;;;;;;;5.65;2.78;;;;;;;5.43;100.00;102149.00;5018673;28;20502;-49
2022/08/06 03:48:43;;;;;;;3.13;2.35;;;;;;;5.39;100.00;102158.06;5002392;28;20037;-50
2022/08/06 03:51:16;;;;;;;4.80;2.17;;;;;;;5.33;100.00;102155.06;5027866;28;20498;-53
2022/08/06 03:53:43;;;;;;;3.53;2.83;;;;;;;5.25;100.00;102163.53;5029400;28;20072;-46
2022/08/06 03:56:13;;;;;;;4.32;2.53;;;;;;;5.19;100.00;102161.38;5029751;28;20029;-49
2022/08/06 03:58:40;;;;;;;3.53;2.60;;;;;;;5.14;100.00;102161.72;5018117;28;20445;-49
2022/08/06 04:01:14;;;;;;;5.63;3.30;;;;;;;5.12;100.00;102155.72;5021053;28;20064;-51
2022/08/06 04:03:40;;;;;;;13.60;5.05;;;;;;;5.06;100.00;102158.81;5024258;28;20029;-49
2022/08/06 04:06:09;;;;;;;3.97;2.65;;;;;;;4.99;100.00;102168.94;5022733;28;20245;-54
2022/08/06 04:08:36;;;;;;;3.85;2.60;;;;;;;4.88;100.00;102161.03;5028417;28;20061;-52
2022/08/06 04:11:02;;;;;;;6.68;2.85;;;;;;;4.81;100.00;102159.78;5021877;28;20415;-47
2022/08/06 04:13:28;;;;;;;6.95;2.72;;;;;;;4.79;100.00;102166.94;5027196;28;20049;-50
2022/08/06 04:15:55;;;;;;;7.40;3.30;;;;;;;4.75;100.00;102158.44;5029090;28;20037;-53
2022/08/06 04:18:27;;;;;;;6.60;3.05;;;;;;;4.78;100.00;102160.03;5026931;28;20040;-49
2022/08/06 04:20:55;;;;;;;5.97;2.92;;;;;;;4.77;100.00;102169.66;5023510;28;20092;-53
2022/08/06 04:23:21;;;;;;;5.88;4.43;;;;;;;4.80;100.00;102173.84;5023697;28;20060;-49
2022/08/06 04:25:53;;;;;;;5.82;3.10;;;;;;;4.77;100.00;102174.91;5029063;28;20029;-48
2022/08/06 04:28:21;;;;;;;6.00;3.55;;;;;;;4.75;100.00;102174.22;5028019;28;20439;-49
2022/08/06 04:30:49;;;;;;;6.40;3.15;;;;;;;4.77;100.00;102174.09;5026852;28;20030;-48
2022/08/06 04:33:17;;;;;;;4.97;2.38;;;;;;;4.78;100.00;102173.16;5029203;28;20482;-50
2022/08/06 04:35:44;;;;;;;9.23;3.40;;;;;;;4.77;100.00;102168.84;5027919;28;20037;-50
2022/08/06 04:38:10;;;;;;;8.27;2.70;;;;;;;4.77;100.00;102169.66;5026554;28;20112;-50
2022/08/06 04:40:37;;;;;;;7.55;3.20;;;;;;;4.74;100.00;102167.25;5029473;28;20431;-49
2022/08/06 04:43:10;;;;;;;5.18;3.33;;;;;;;4.71;100.00;102166.66;5021603;28;20064;-53
2022/08/06 04:45:43;;;;;;;5.53;3.60;;;;;;;4.68;100.00;102170.34;5033331;28;20508;-47
2022/08/06 04:48:10;;;;;;;5.05;3.28;;;;;;;4.68;100.00;102178.25;5030385;28;20041;-46
2022/08/06 04:50:37;;;;;;;5.53;3.72;;;;;;;4.63;100.00;102179.53;5024482;28;20099;-47
2022/08/06 04:53:14;;;;;;;3.63;3.13;;;;;;;4.61;100.00;102184.03;5022251;28;20036;-50
2022/08/06 04:55:41;;;;;;;6.13;4.07;;;;;;;4.60;100.00;102183.22;5015281;28;20486;-47
2022/08/06 04:58:09;;;;;;;5.70;4.03;;;;;;;4.61;100.00;102184.03;5020247;28;20034;-47
2022/08/06 05:00:37;;;;;;;5.97;3.35;;;;;;;4.66;100.00;102185.38;5017266;28;20038;-48
2022/08/06 05:03:03;;;;;;;4.40;3.22;;;;;;;4.72;100.00;102181.47;5034490;28;20048;-49
2022/08/06 05:05:52;;;;;;;5.45;2.40;;;;;;;4.74;100.00;102195.34;5019906;28;20425;-47
2022/08/06 05:08:20;;;;;;;4.93;2.83;;;;;;;4.74;100.00;102209.31;5023812;28;20116;-49
2022/08/06 05:10:56;;;;;;;3.35;2.17;;;;;;;4.74;100.00;102200.59;5023166;28;20057;-50
2022/08/06 05:13:26;;;;;;;5.63;3.10;;;;;;;4.74;100.00;102203.22;5027118;28;20036;-47
2022/08/06 05:15:56;;;;;;;5.05;3.38;;;;;;;4.76;100.00;102206.59;5030020;28;20087;-47
2022/08/06 05:18:33;;;;;;;3.38;2.88;;;;;;;4.77;100.00;102200.38;5025966;28;20415;-52
2022/08/06 05:20:59;;;;;;;5.60;3.38;;;;;;;4.79;100.00;102201.94;5020099;28;20080;-53
2022/08/06 05:23:36;;;;;;;5.40;2.90;;;;;;;4.83;100.00;102197.31;5026631;28;20044;-48
2022/08/06 05:26:03;;;;;;;11.13;4.35;;;;;;;4.84;100.00;102201.63;5026314;28;20117;-48
2022/08/06 05:28:28;;;;;;;4.93;3.88;;;;;;;4.86;100.00;102202.34;5020940;28;20034;-52
2022/08/06 05:30:55;;;;;;;6.72;3.78;;;;;;;4.90;100.00;102219.56;5024285;28;20095;-49
2022/08/06 05:33:30;;;;;;;4.85;2.95;;;;;;;4.96;100.00;102215.66;5023197;28;20526;-53
2022/08/06 05:35:58;;;;;;;6.60;3.80;;;;;;;5.01;100.00;102217.00;5025124;28;20127;-53
2022/08/06 05:38:25;;;;;;;4.28;3.25;;;;;;;5.05;100.00;102214.97;5021752;28;20030;-50
2022/08/06 05:40:52;;;;;;;4.68;3.33;;;;;;;5.10;100.00;102215.47;5023457;28;20039;-51
2022/08/06 05:43:17;;;;;;;4.97;3.15;;;;;;;5.18;100.00;102220.16;5028711;28;20359;-52
2022/08/06 05:45:49;;;;;;;6.18;3.45;;;;;;;5.26;100.00;102220.44;5024631;28;20148;-49
2022/08/06 05:48:18;;;;;;;11.95;3.88;;;;;;;5.38;100.00;102218.69;5025250;28;20040;-50
2022/08/06 05:50:48;;;;;;;4.65;3.58;;;;;;;5.47;100.00;102223.25;5021732;28;20133;-48
2022/08/06 05:53:40;;;;;;;7.55;3.78;;;;;;;5.61;100.00;102223.06;5020100;28;20029;-49
2022/08/06 05:56:17;;;;;;;7.22;4.05;;;;;;;5.77;100.00;102228.00;5021464;28;20030;-54
2022/08/06 05:58:53;;;;;;;9.43;4.68;;;;;;;5.97;100.00;102229.16;5023212;28;20320;-50
2022/08/06 06:01:19;;;;;;;4.00;3.38;;;;;;;6.14;100.00;102230.47;5024710;28;20040;-52
2022/08/06 06:03:46;;;;;;;5.50;4.00;;;;;;;6.30;100.00;102233.59;5024672;28;20204;-54
2022/08/06 06:06:12;;;;;;;5.25;4.40;;;;;;;6.41;100.00;102232.75;5026820;28;20081;-47
2022/08/06 06:08:38;;;;;;;7.03;3.72;;;;;;;6.58;100.00;102234.03;5027256;28;20120;-47
2022/08/06 06:11:07;;;;;;;8.50;4.75;;;;;;;6.78;100.00;102230.63;5025748;28;20060;-48
2022/08/06 06:13:33;;;;;;;5.65;4.63;;;;;;;6.97;100.00;102229.19;5029624;28;20558;-47
2022/08/06 06:16:23;;;;;;;7.13;4.82;;;;;;;7.14;100.00;102225.97;5017900;28;20025;-48
2022/08/06 06:19:16;;;;;;;4.45;3.97;;;;;;;7.28;100.00;102232.78;5023689;28;20038;-48
2022/08/06 06:22:16;;;;;;;10.02;4.97;;;;;;;7.51;100.00;102233.50;5025794;28;20029;-50
2022/08/06 06:24:50;;;;;;;4.80;4.15;;;;;;;7.82;100.00;102225.63;5022264;28;20049;-48
2022/08/06 06:27:42;;;;;;;8.45;5.30;;;;;;;7.98;100.00;102228.66;5021677;28;20034;-51
2022/08/06 06:30:12;;;;;;;7.28;4.43;;;;;;;8.14;100.00;102230.81;5017102;28;20103;-51
2022/08/06 06:33:14;;;;;;;5.60;4.18;;;;;;;8.39;100.00;102232.22;5012341;28;20053;-51
2022/08/06 06:35:46;;;;;;;7.47;3.88;;;;;;;8.74;100.00;102228.25;5027084;28;20487;-50
2022/08/06 06:38:22;;;;;;;5.50;3.40;;;;;;;8.89;100.00;102226.88;5026945;28;20032;-51
2022/08/06 06:40:53;;;;;;;11.25;4.88;;;;;;;9.21;100.00;102231.06;5024395;28;20041;-49
2022/08/06 06:43:24;;;;;;;6.78;4.95;;;;;;;9.31;100.00;102231.91;5023287;28;20041;-52
2022/08/06 06:46:02;;;;;;;4.30;3.15;;;;;;;9.56;100.00;102235.81;5024253;28;20029;-51
2022/08/06 06:48:43;;;;;;;4.95;3.20;;;;;;;9.84;100.00;102233.25;5015174;28;20083;-49
2022/08/06 06:51:32;;;;;;;4.95;3.40;;;;;;;10.31;100.00;102235.06;5021063;28;20037;-57
2022/08/06 06:53:58;;;;;;;16.27;5.15;;;;;;;10.77;100.00;102225.34;5021867;28;20032;-52
2022/08/06 06:56:36;;;;;;;4.85;2.88;;;;;;;11.07;100.00;102222.28;5025261;28;20033;-55
2022/08/06 06:59:10;;;;;;;4.35;2.90;;;;;;;11.15;100.00;102213.56;5022094;28;20034;-49
2022/08/06 07:01:36;;;;;;;4.45;1.92;;;;;;;11.20;100.00;102215.78;5020975;28;20063;-53
2022/08/06 07:04:07;;;;;;;7.95;2.83;;;;;;;11.26;100.00;102215.19;5024092;28;20238;-54
2022/08/06 07:06:33;;;;;;;3.72;2.30;;;;;;;11.38;100.00;102216.59;5021708;28;20041;-54
2022/08/06 07:09:00;;;;;;;6.22;2.30;;;;;;;11.47;100.00;102217.50;5015117;28;20029;-54
2022/08/06 07:11:27;;;;;;;7.13;2.63;;;;;;;11.63;100.00;102216.78;5017922;28;20115;-51
2022/08/06 07:13:55;;;;;;;3.92;2.58;;;;;;;11.76;100.00;102219.84;5016014;28;20033;-51
2022/08/06 07:16:23;;;;;;;3.83;2.08;;;;;;;11.95;100.00;102222.34;5023178;28;20063;-53
2022/08/06 07:18:52;;;;;;;3.88;1.98;;;;;;;12.10;100.00;102216.41;5024713;28;20104;-50
2022/08/06 07:21:19;;;;;;;4.65;2.05;;;;;;;12.27;100.00;102215.50;5018027;28;20431;-49
2022/08/06 07:23:48;;;;;;;4.38;2.42;;;;;;;12.42;100.00;102218.41;5020283;28;20029;-54
2022/08/06 07:26:16;;;;;;;2.95;1.67;;;;;;;12.62;100.00;102214.47;5017470;28;20026;-49
2022/08/06 07:28:42;;;;;;;3.05;1.63;;;;;;;12.79;100.00;102209.19;5022920;28;20494;-51
2022/08/06 07:31:09;;;;;;;1.75;1.45;;;;;;;12.87;100.00;102210.03;5022161;28;20120;-50
2022/08/06 07:33:37;;;;;;;7.95;2.47;;;;;;;13.01;100.00;102213.03;5027431;28;20029;-52
2022/08/06 07:36:03;;;;;;;4.40;1.70;;;;;;;13.08;100.00;102203.41;5029127;28;20171;-53
2022/08/06 07:38:32;;;;;;;3.75;1.85;;;;;;;13.17;100.00;102199.75;5019779;28;20101;-51
2022/08/06 07:41:01;;;;;;;3.08;1.95;;;;;;;13.27;100.00;102195.13;5034460;28;20032;-52
2022/08/06 07:43:32;;;;;;;6.05;1.77;;;;;;;13.41;100.00;102201.59;5032262;28;20021;-53
2022/08/06 07:46:01;;;;;;;4.47;1.63;;;;;;;13.55;100.00;102209.91;5027333;28;20032;-50
2022/08/06 07:48:37;;;;;;;2.85;1.67;;;;;;;13.70;100.00;102209.03;5020900;28;20025;-53
2022/08/06 07:51:04;;;;;;;3.40;1.88;;;;;;;13.74;100.00;102210.38;5031348;28;20044;-54
2022/08/06 07:53:31;;;;;;;2.30;2.00;;;;;;;13.87;100.00;102207.19;5029340;28;20025;-50
2022/08/06 07:55:57;;;;;;;8.77;2.13;;;;;;;13.97;100.00;102209.66;5022641;28;20079;-53
2022/08/06 07:58:23;;;;;;;2.63;1.98;;;;;;;14.11;100.00;102205.44;5025712;28;20116;-48
2022/08/06 08:00:48;;;;;;;11.63;2.85;;;;;;;14.21;100.00;102199.91;5027182;28;20455;-55
2022/08/06 08:06:43;;;;;;;4.18;2.05;;;;;;;14.48;100.00;102201.28;5024838;28;20516;-48
2022/08/06 08:09:17;;;;;;;4.80;1.95;;;;;;;14.61;100.00;102197.06;5033982;28;20041;-49
2022/08/06 08:11:45;;;;;;;8.45;2.58;;;;;;;14.61;100.00;102198.91;5022549;28;20520;-52
2022/08/06 08:14:12;;;;;;;3.20;2.00;;;;;;;14.54;100.00;102201.44;5033524;28;20038;-48
2022/08/06 08:16:40;;;;;;;6.50;2.20;;;;;;;14.65;100.00;102202.06;5022539;28;20284;-53
2022/08/06 08:19:23;;;;;;;5.43;2.72;;;;;;;14.74;100.00;102201.00;5036822;28;20504;-54
2022/08/06 08:21:51;;;;;;;4.88;2.38;;;;;;;14.84;100.00;102198.91;5022523;28;20027;-55
2022/08/06 08:24:16;;;;;;;4.30;2.42;;;;;;;14.95;100.00;102203.88;5024803;28;20075;-50
2022/08/06 08:26:42;;;;;;;4.53;2.03;;;;;;;15.01;100.00;102191.63;5032656;28;20063;-49
2022/08/06 08:29:09;;;;;;;5.82;2.67;;;;;;;15.16;100.00;102195.19;5026495;28;20037;-53
2022/08/06 08:31:35;;;;;;;3.85;2.35;;;;;;;15.39;100.00;102197.84;5025934;28;20106;-52
2022/08/06 08:34:00;;;;;;;2.05;1.95;;;;;;;15.51;100.00;102197.38;5022086;28;20033;-48
2022/08/06 08:36:26;;;;;;;9.18;3.40;;;;;;;15.54;100.00;102189.00;5022530;28;20180;-53
2022/08/06 08:38:56;;;;;;;5.20;2.67;;;;;;;15.59;100.00;102191.94;5021000;28;20061;-52
2022/08/06 08:41:35;;;;;;;4.82;3.20;;;;;;;15.60;100.00;102193.63;5014736;28;20030;-47
2022/08/06 08:44:03;;;;;;;5.35;2.45;;;;;;;15.55;100.00;102194.16;5015557;28;20086;-50
2022/08/06 08:46:40;;;;;;;4.82;2.40;;;;;;;15.60;100.00;102185.59;5007640;28;20474;-52
2022/08/06 08:49:08;;;;;;;3.10;2.50;;;;;;;15.73;100.00;102191.19;5013286;28;20045;-53
2022/08/06 08:51:38;;;;;;;5.97;2.72;;;;;;;15.79;100.00;102194.97;5015614;28;20026;-54
2022/08/06 08:54:07;;;;;;;3.33;2.25;;;;;;;16.01;100.00;102190.53;5014725;28;20368;-53
2022/08/06 08:56:33;;;;;;;5.38;3.35;;;;;;;16.25;100.00;102184.06;5013456;28;20034;-55
2022/08/06 08:59:01;;;;;;;9.23;3.10;;;;;;;16.52;100.00;102188.72;5019305;28;20025;-54
2022/08/06 09:01:26;;;;;;;5.72;1.90;;;;;;;16.62;100.00;102177.66;5020375;28;20054;-54
2022/08/06 09:03:52;;;;;;;5.57;3.00;;;;;;;16.69;100.00;102181.25;5024921;28;20056;-51
2022/08/06 09:06:18;;;;;;;4.88;2.03;;;;;;;16.86;100.00;102181.06;5022323;28;20240;-56
2022/08/06 09:08:46;;;;;;;6.53;2.90;;;;;;;16.89;100.00;102180.66;5030289;28;20021;-54
2022/08/06 09:11:12;;;;;;;4.30;2.70;;;;;;;16.90;100.00;102175.09;5024594;28;20053;-53
2022/08/06 09:13:38;;;;;;;3.78;1.73;;;;;;;16.85;100.00;102172.16;5028310;28;20487;-55
2022/08/06 09:16:03;;;;;;;3.75;2.35;;;;;;;16.77;100.00;102169.59;5024484;28;20061;-53
2022/08/06 09:18:29;;;;;;;4.35;3.03;;;;;;;17.04;100.00;102178.75;5019577;28;20029;-52
2022/08/06 09:20:58;;;;;;;2.58;2.33;;;;;;;17.40;100.00;102177.81;5020155;28;20048;-55
2022/08/06 09:23:23;;;;;;;3.47;2.25;;;;;;;17.69;100.00;102175.94;5016365;28;20725;-52
2022/08/06 09:25:52;;;;;;;3.22;2.90;;;;;;;17.88;100.00;102177.91;5024426;28;20143;-55
2022/08/06 09:28:37;;;;;;;3.10;2.10;;;;;;;18.07;100.00;102179.88;5010233;28;20030;-55
2022/08/06 09:31:17;;;;;;;3.97;2.63;;;;;;;18.27;100.00;102176.44;5030498;28;20078;-54
2022/08/06 09:33:57;;;;;;;3.95;1.90;;;;;;;18.31;100.00;102177.72;5012951;28;20022;-53
2022/08/06 09:36:23;;;;;;;2.67;2.47;;;;;;;18.49;100.00;102172.59;5023826;28;20037;-47
2022/08/06 09:38:48;;;;;;;4.28;1.92;;;;;;;18.57;100.00;102185.03;5021379;28;20030;-49
2022/08/06 09:41:15;;;;;;;3.80;2.53;;;;;;;18.65;100.00;102186.69;5020961;28;20128;-52
2022/08/06 09:43:41;;;;;;;7.85;2.30;;;;;;;18.66;100.00;102189.16;5016853;28;20095;-50
2022/08/06 09:46:07;;;;;;;3.90;1.77;;;;;;;18.58;100.00;102181.28;5013582;28;20041;-47
2022/08/06 09:48:33;;;;;;;2.55;1.88;;;;;;;18.54;100.00;102188.13;5014260;28;20820;-49
2022/08/06 09:50:59;;;;;;;2.55;2.35;;;;;;;18.35;100.00;102184.31;5018866;28;20406;-49
2022/08/06 09:53:25;;;;;;;3.33;2.08;;;;;;;18.17;100.00;102184.03;5018899;28;20068;-54
2022/08/06 09:55:52;;;;;;;5.00;1.75;;;;;;;18.27;100.00;102195.25;5021409;28;20068;-52
2022/08/06 09:58:34;;;;;;;6.32;2.10;;;;;;;18.47;100.00;102188.09;5019326;28;20037;-55
2022/08/06 10:01:22;;;;;;;3.80;2.45;;;;;;;18.45;100.00;102186.63;5014388;28;20486;-55
2022/08/06 10:03:49;;;;;;;2.63;1.58;;;;;;;18.51;100.00;102196.59;5017794;28;20489;-55
2022/08/06 10:06:20;;;;;;;4.88;1.98;;;;;;;18.67;100.00;102198.06;5016305;28;20124;-53
2022/08/06 10:08:47;;;;;;;4.47;1.80;;;;;;;18.66;100.00;102196.41;5022663;28;20033;-54
2022/08/06 10:11:13;;;;;;;2.67;1.80;;;;;;;18.78;100.00;102189.44;5025609;28;20905;-57
2022/08/06 10:13:45;;;;;;;2.80;1.48;;;;;;;18.85;100.00;102189.47;5020391;28;20026;-57
2022/08/06 10:16:29;;;;;;;2.70;1.35;;;;;;;18.49;100.00;102191.41;5013989;28;20040;-57
2022/08/06 10:18:57;;;;;;;7.18;1.33;;;;;;;18.66;100.00;102188.34;5011928;28;20026;-57
2022/08/06 10:21:32;;;;;;;4.00;1.80;;;;;;;19.21;100.00;102182.88;5011335;28;20053;-53
2022/08/06 10:24:04;;;;;;;5.55;1.25;;;;;;;19.58;100.00;102176.00;5009774;28;20087;-53
2022/08/06 10:26:32;;;;;;;3.53;1.67;;;;;;;19.56;96.84;102175.38;5015862;28;20053;-54
2022/08/06 10:29:06;;;;;;;1.65;1.35;;;;;;;19.58;98.58;102165.22;5025656;28;20466;-56
2022/08/06 10:31:33;;;;;;;3.20;2.08;;;;;;;19.54;96.68;102166.66;5024222;28;20120;-52
2022/08/06 10:34:02;;;;;;;3.63;2.15;;;;;;;19.69;96.78;102167.28;5024120;28;20060;-54
2022/08/06 10:36:40;;;;;;;1.85;1.02;;;;;;;19.71;89.84;102165.22;5020774;28;20450;-56
2022/08/06 10:39:06;;;;;;;3.20;1.25;;;;;;;19.48;92.68;102168.34;5023770;28;20036;-54
2022/08/06 10:41:35;;;;;;;2.22;1.55;;;;;;;19.65;91.17;102168.75;5027288;28;20387;-52
2022/08/06 10:44:02;;;;;;;1.77;1.33;;;;;;;20.20;91.44;102158.41;5026629;28;20037;-47
2022/08/06 10:46:28;;;;;;;3.55;2.05;;;;;;;20.65;90.01;102160.28;5021597;28;20028;-49
2022/08/06 10:48:54;;;;;;;3.17;1.65;;;;;;;20.69;86.20;102162.31;5010290;28;20033;-53
2022/08/06 10:51:21;;;;;;;3.47;3.05;;;;;;;20.75;87.29;102166.00;5021156;28;20030;-52
2022/08/06 10:53:47;;;;;;;2.70;1.42;;;;;;;21.06;88.33;102154.34;5015486;28;20037;-52
2022/08/06 10:56:15;;;;;;;5.75;1.48;;;;;;;21.30;85.61;102146.50;5017062;28;20394;-48
2022/08/06 10:58:42;;;;;;;4.70;1.63;;;;;;;21.30;84.11;102147.31;5011496;28;20037;-52
2022/08/06 11:01:48;;;;;;;4.00;1.30;;;;;;;20.98;80.33;102151.94;5012677;28;20026;-54
2022/08/06 11:04:20;;;;;;;2.92;1.00;;;;;;;20.67;78.63;102163.56;5003642;28;20069;-54
2022/08/06 11:07:28;;;;;;;3.05;0.95;;;;;;;20.54;75.67;102150.16;5019137;28;20091;-50
2022/08/06 11:10:15;;;;;;;1.50;1.30;;;;;;;20.40;76.71;102154.81;5016014;28;20087;-50
2022/08/06 11:12:51;;;;;;;1.50;1.10;;;;;;;20.39;75.34;102155.84;5015029;28;20151;-49
2022/08/06 11:15:20;;;;;;;1.08;0.80;;;;;;;20.68;74.83;102144.50;5012855;28;20114;-53
2022/08/06 11:17:48;;;;;;;3.53;0.75;;;;;;;20.86;74.03;102137.53;5018609;28;20470;-54
2022/08/06 11:20:32;;;;;;;3.10;1.00;;;;;;;21.00;72.07;102140.94;5015076;28;20033;-53
2022/08/06 11:23:21;;;;;;;1.10;1.05;;;;;;;21.18;73.04;102137.47;5014401;28;20037;-53
2022/08/06 11:25:48;;;;;;;3.90;1.10;;;;;;;21.40;71.99;102141.44;5010136;28;20359;-48
2022/08/06 11:28:29;;;;;;;1.55;0.75;;;;;;;21.21;65.31;102134.31;5009688;28;20120;-52
2022/08/06 11:30:57;;;;;;;1.80;0.75;;;;;;;21.31;69.04;102137.34;5007274;28;20087;-52
2022/08/06 11:33:35;;;;;;;3.15;1.02;;;;;;;21.40;67.08;102135.19;5007014;28;20116;-54
2022/08/06 11:36:05;;;;;;;4.43;1.00;;;;;;;21.45;67.64;102135.34;5011955;28;20029;-54
2022/08/06 11:38:42;;;;;;;3.28;0.95;;;;;;;21.65;65.01;102118.97;5011729;28;20044;-54
2022/08/06 11:41:17;;;;;;;2.25;1.00;;;;;;;21.80;65.26;102122.09;5009137;28;20132;-55